To NAV CANADA Home Page Login to a new session Search on AWWS site Feedback and Comments Disclaimer Vers la page française équivalente Tips FAQ What's new on the site To the Forecasts and Observations / NOTAM section To "File a Flight Plan" website Publications and other links Update of the User's profile FIC Telephone Numbers My Weather Data Folder Route Weather Data Regional Weather Data Local Weather Data To the Forecasts and Observations / NOTAM section
Request Generated 03/28/2015 at 01:43:58 UTC . Weather information available at that time is displayed.

METAR/TAF

TORONTO/BUTTONVILLE MUNICIPAL/ON    

SPECI CYKZ 280122Z 32010G17KT 15SM FEW055TCU SCT085 BKN250 RMK TCU1ACC4CI0 TCU TR=
METAR CYKZ 280100Z 34011G16KT 14SM -SHSN BKN085 M07/M13 A3000 RMK ACC6 PCPN VRY LGT SLP169=
SPECI CYKZ 280016Z 33013G19KT 14SM -SHSN SCT050TCU BKN080 RMK TCU4AC3 TCU SE-N=
METAR CYKZ 280000Z 32012G17KT 15SM SCT055TCU BKN080 OVC250 M07/M12 A2998 RMK TCU3AC4CI0 SLP164=
METAR CYKZ 272300Z 33013KT 15SM FEW024 BKN083 M06/M12 A2996 RMK SC1AC7 SC TR SLP155=

TAF CYKZ 272338Z 2800/2812 34015KT P6SM FEW020 BKN080
FM280100 35012KT P6SM SCT030
RMK NXT FCST BY 280600Z=
Your time UTC time
Weather data provided by Environment Canada and NAV CANADA